Terminal Aerodrome Forecast
Issued by NWS

Home | Current Version | Previous Version | Text Only | Print | Product List | Glossary On
Versions: 1 2 3 4 5 6 7 8 9 10 11 12 13 14 15 16 17 18 19 20 21 22 23 24 25 26 27 28 29 30 31 32 33 34 35 36 37 38 39 40 41 42 43 44 45 46 47 48 49 50
000
FTUS45 KPSR 280200 AAA
TAFIWA
TAF AMD
KIWA 280204Z 2802/2824 29009KT P6SM FEW100 SCT200
     FM280500 13012KT P6SM VCTS BKN100CB BKN150
     FM280700 12008KT P6SM BKN100 BKN150
     FM281800 25007KT P6SM FEW120 SCT250
      AMD LTD TO CLD VIS AND WIND 2803/2813=

USA.gov is the U.S. government's official web portal to all federal, state and local government web resources and services.